Nord Trail Mont des Flandres - NTMF 2024

Epreuve sélectionnée:


NTMF59 - Résultats Scratch

Filtre:

Partants Général Top 5



Recherche:

N° dossard
Nom
Club
NTMF59 - Finish
Clt Athlète Nat. Club Temps Sexe Cat Réel Split1 Split2 Split3
1 2756 LEROY Raphael 04:05:42 M (1e) Senior (1e) 04:05:42 (1e) 02:23:41 (2e) 03:20:07 (1e) 03:52:24 (1e) Partagez votre performance
2 2248 PLAY Jean-christophe 04:17:46 M (2e) Master 1 (1e) 04:17:46 (2e) 02:25:11 (3e) 03:32:50 (2e) 04:04:02 (2e) Partagez votre performance
3 2428 LANSIAUX Gatien 04:33:12 M (3e) Senior (2e) 04:33:12 (3e) 02:36:41 (8e) 03:47:48 (4e) 04:20:22 (4e) Partagez votre performance
4 2253 CITERNE Julien 04:33:14 M (4e) Senior (3e) 04:33:14 (4e) 02:32:00 (4e) 03:46:42 (3e) 04:19:49 (3e) Partagez votre performance
5 2412 WAESELYNCK Julien 04:38:19 M (5e) Senior (4e) 04:38:19 (5e) 02:33:59 (5e) 03:47:49 (5e) 04:23:23 (5e) Partagez votre performance
6 2651 STAQUET Louis 04:40:18 M (6e) Senior (5e) 04:40:18 (6e) 02:38:45 (10e) 03:50:13 (8e) 04:26:02 (6e) Partagez votre performance
7 2594 BOUTON Remi 04:43:00 M (7e) Senior (6e) 04:43:00 (7e) 02:35:44 (7e) 03:49:14 (6e) 04:26:47 (7e) Partagez votre performance
8 2787 MAES Paul 04:45:00 M (8e) Master 0 (1e) 04:45:00 (8e) 02:34:20 (6e) 03:49:24 (7e) 04:28:28 (8e) Partagez votre performance
9 2759 SEMEN Xavier 04:49:13 M (9e) Master 1 (2e) 04:49:13 (9e) 02:39:50 (12e) 03:59:14 (11e) 04:34:07 (9e) Partagez votre performance
10 2186 GRIVART Valentin 04:54:55 M (10e) Senior (7e) 04:54:55 (10e) 02:38:46 (11e) 03:57:43 (9e) 04:38:29 (10e) Partagez votre performance
11 2400 MABILLE Simon 04:57:44 M (11e) Master 0 (2e) 04:57:44 (11e) 02:48:23 (20e) 04:06:26 (14e) 04:43:16 (13e) Partagez votre performance
12 2330 FOILLERET Killian SPORT AVENTURE 04:58:26 M (12e) Senior (8e) 04:58:26 (12e) 02:37:29 (9e) 03:59:12 (10e) 04:42:20 (11e) Partagez votre performance
13 2303 GUIGO Pierre 04:58:28 M (13e) Senior (9e) 04:58:28 (13e) 02:43:47 (14e) 04:02:51 (12e) 04:42:34 (12e) Partagez votre performance
14 2163 DUBOIS Benjamin 05:00:59 M (14e) Senior (10e) 05:00:59 (14e) 02:47:48 (18e) 04:04:58 (13e) 04:44:29 (14e) Partagez votre performance
15 2598 TRIFIN Jonathan 05:02:42 M (15e) Master 1 (3e) 05:02:42 (15e) 02:47:49 (19e) 04:08:24 (16e) 04:47:03 (15e) Partagez votre performance
16 2260 MASSELOT Camille 05:10:10 M (16e) Espoir (1e) 05:10:10 (16e) 02:40:47 (13e) 04:06:28 (15e) 04:52:21 (16e) Partagez votre performance
17 2233 PAU Frederic US MARQUETTE 05:13:32 M (17e) Master 1 (4e) 05:13:32 (17e) 02:58:02 (32e) 04:20:08 (19e) 04:56:50 (18e) Partagez votre performance
18 2678 COUSIN Maxime 05:13:58 M (18e) Senior (11e) 05:13:58 (18e) 02:54:53 (28e) 04:15:34 (17e) 04:55:25 (17e) Partagez votre performance
19 2318 NAINE Thibaud 05:17:56 M (19e) Senior (12e) 05:17:56 (19e) 02:55:41 (29e) 04:21:28 (20e) 05:02:14 (19e) Partagez votre performance
20 2004 DOYEN Max-ange 05:18:04 M (20e) Senior (13e) 05:18:04 (20e) 02:47:33 (17e) 04:23:07 (23e) 05:02:22 (20e) Partagez votre performance
21 2274 VAN MOERKERCKE Pierre 05:19:13 M (21e) Senior (14e) 05:19:13 (21e) 02:50:40 (22e) 04:17:11 (18e) 05:02:36 (21e) Partagez votre performance
22 2468 DUPUIS Romain 05:20:43 M (22e) Master 0 (3e) 05:20:43 (22e) 03:00:03 (35e) 04:22:05 (21e) 05:02:50 (22e) Partagez votre performance
23 2178 BODIN Jean-baptiste 05:23:21 M (23e) Master 1 (5e) 05:23:21 (23e) 03:00:09 (36e) 04:24:42 (27e) 05:06:45 (23e) Partagez votre performance
24 2275 SANDRON Thibaut 05:25:39 M (24e) Senior (15e) 05:25:39 (24e) 02:53:48 (24e) 04:22:52 (22e) 05:09:18 (25e) Partagez votre performance
25 2329 MAISONNAVE Louis 05:25:39 M (25e) Senior (16e) 05:25:39 (25e) 02:51:34 (23e) 04:24:30 (26e) 05:09:32 (26e) Partagez votre performance
26 2353 TAUPIER Cedric ENTENTE NORD DE L AISNE ATHLETISME* 05:25:42 M (26e) Master 2 (1e) 05:25:42 (26e) 02:54:23 (26e) 04:23:42 (24e) 05:08:10 (24e) Partagez votre performance
27 2047 BOUAZZAOUI Luc 05:26:49 M (27e) Master 0 (4e) 05:26:49 (27e) 03:05:51 (54e) 04:31:16 (31e) 05:09:55 (27e) Partagez votre performance
28 2389 DESPRES Thibault 05:29:54 M (28e) Senior (17e) 05:29:54 (28e) 02:45:57 (16e) 04:26:08 (28e) 05:13:22 (29e) Partagez votre performance
29 2466 DUBOIS Mathis 05:31:51 M (29e) Espoir (2e) 05:31:51 (29e) 02:54:48 (27e) 04:29:14 (29e) 05:13:21 (28e) Partagez votre performance
30 2339 LLORCA Anthony STADE BORDELAIS ATHLETISME* 05:33:23 M (30e) Senior (18e) 05:33:23 (30e) 03:05:04 (51e) 04:33:42 (34e) 05:15:37 (30e) Partagez votre performance
31 2606 LE GAL Romain 05:33:31 M (31e) Senior (19e) 05:33:31 (31e) 02:48:51 (21e) 04:30:47 (30e) 05:16:05 (31e) Partagez votre performance
32 2147 TROCLET Maxime 05:34:19 M (32e) Master 0 (5e) 05:34:19 (32e) 03:07:25 (62e) 04:38:01 (46e) 05:16:35 (32e) Partagez votre performance
33 2455 MULOT Julien 3 MONTS 05:34:38 M (33e) Master 1 (6e) 05:34:38 (33e) 03:07:29 (63e) 04:36:02 (41e) 05:17:47 (35e) Partagez votre performance
34 2162 NOGARD Alexandre 05:34:47 M (34e) Master 0 (6e) 05:34:47 (34e) 03:03:22 (44e) 04:35:53 (40e) 05:17:44 (34e) Partagez votre performance
35 2185 WYCKAERT Gregoire 05:35:23 M (35e) Master 0 (7e) 05:35:23 (35e) 03:02:45 (42e) 04:34:31 (35e) 05:16:46 (33e) Partagez votre performance
36 2072 LOHYN Adrien RUN'IN CLUB 05:37:06 M (36e) Senior (20e) 05:37:06 (36e) 03:00:40 (37e) 04:34:55 (37e) 05:18:46 (37e) Partagez votre performance
37 2623 VANDEWALLE Thomas 05:37:34 M (37e) Master 1 (7e) 05:37:34 (37e) 03:04:34 (48e) 04:36:49 (43e) 05:20:06 (41e) Partagez votre performance
38 2058 DORMIEU DESWARTE Helene 05:37:40 F (1e) Master 2 (1e) 05:37:40 (38e) 03:03:31 (45e) 04:37:24 (44e) 05:20:09 (42e) Partagez votre performance
39 2524 MARQUIS Kevin 05:38:02 M (38e) Master 0 (8e) 05:38:02 (39e) 03:04:40 (49e) 04:34:47 (36e) 05:19:01 (39e) Partagez votre performance
40 2640 DUJARDIN Jerome 05:38:20 M (39e) Master 2 (2e) 05:38:20 (40e) 02:54:14 (25e) 04:32:52 (32e) 05:18:50 (38e) Partagez votre performance
41 2365 PUTMAN Nicolas 05:39:07 M (40e) Master 2 (3e) 05:39:07 (41e) 02:59:16 (34e) 04:33:36 (33e) 05:18:43 (36e) Partagez votre performance
42 2462 BROUZET Melanie 05:39:43 F (2e) Master 0 (1e) 05:39:43 (42e) 03:08:21 (67e) 04:39:13 (50e) 05:21:14 (44e) Partagez votre performance
43 2602 VIVIEN David 05:40:20 M (41e) Master 3 (1e) 05:40:20 (43e) 03:09:34 (70e) 04:38:39 (49e) 05:21:13 (43e) Partagez votre performance
44 2277 BERNARD Julien 05:40:42 M (42e) Master 0 (9e) 05:40:42 (44e) 03:03:55 (46e) 04:38:37 (48e) 05:21:33 (45e) Partagez votre performance
45 2512 DUFOUR Martin 05:40:48 M (43e) Master 0 (10e) 05:40:48 (45e) 03:16:11 (92e) 04:42:43 (59e) 05:24:32 (50e) Partagez votre performance
46 2422 DEBOVE Nicolas 05:41:27 M (44e) Senior (21e) 05:41:27 (46e) 02:56:57 (30e) 04:35:28 (39e) 05:23:48 (47e) Partagez votre performance
47 2586 VERACX Augustin 05:41:51 M (45e) Espoir (3e) 05:41:51 (47e) 03:02:14 (39e) 04:36:33 (42e) 05:23:15 (46e) Partagez votre performance
48 2285 LEFEVRE Manon 05:42:57 F (3e) Senior (1e) 05:42:57 (48e) 03:12:02 (82e) 04:43:02 (61e) 05:27:15 (55e) Partagez votre performance
49 2494 LEPOUTRE Bastien 05:43:08 M (46e) Senior (22e) 05:43:08 (49e) 03:11:27 (78e) 04:42:03 (56e) 05:25:09 (52e) Partagez votre performance
50 2683 VELGE Mathieu AUSHOPPING 05:43:19 M (47e) Master 1 (8e) 05:43:19 (50e) 03:04:03 (47e) 04:39:39 (51e) 05:23:49 (48e) Partagez votre performance
51 2614 CHRETIEN Arnaud 05:43:42 M (48e) Master 0 (11e) 05:43:42 (51e) 02:44:48 (15e) 04:24:16 (25e) 05:19:58 (40e) Partagez votre performance
52 2060 MARRIS Morgan 05:44:17